sensor_id;sensor_type;location;lat;lon;timestamp;pressure;altitude;pressure_sealevel;temperature;humidity
73332;BME280;61560;33.718;73.040;2023-02-01T00:01:36;95329.09;;;9.51;70.60
73332;BME280;61560;33.718;73.040;2023-02-01T00:04:02;95327.94;;;9.45;71.23
73332;BME280;61560;33.718;73.040;2023-02-01T00:06:29;95333.78;;;9.40;70.61
73332;BME280;61560;33.718;73.040;2023-02-01T00:08:56;95331.44;;;9.39;71.04
73332;BME280;61560;33.718;73.040;2023-02-01T00:11:23;95324.81;;;9.40;70.99
73332;BME280;61560;33.718;73.040;2023-02-01T00:13:51;95325.59;;;9.37;70.18
73332;BME280;61560;33.718;73.040;2023-02-01T00:16:23;95330.28;;;9.36;70.19
73332;BME280;61560;33.718;73.040;2023-02-01T00:19:00;95329.88;;;9.34;70.97
73332;BME280;61560;33.718;73.040;2023-02-01T00:21:28;95327.16;;;9.34;70.60
73332;BME280;61560;33.718;73.040;2023-02-01T00:23:55;95327.94;;;9.35;70.39
73332;BME280;61560;33.718;73.040;2023-02-01T00:26:31;95331.09;;;9.30;70.79
73332;BME280;61560;33.718;73.040;2023-02-01T00:28:58;95337.31;;;9.27;70.75
73332;BME280;61560;33.718;73.040;2023-02-01T00:31:25;95334.22;;;9.21;70.20
73332;BME280;61560;33.718;73.040;2023-02-01T00:33:52;95336.16;;;9.24;70.08
73332;BME280;61560;33.718;73.040;2023-02-01T00:36:18;95341.22;;;9.26;70.73
73332;BME280;61560;33.718;73.040;2023-02-01T00:38:46;95342.78;;;9.27;70.48
73332;BME280;61560;33.718;73.040;2023-02-01T00:41:18;95343.19;;;9.29;70.26
73332;BME280;61560;33.718;73.040;2023-02-01T00:43:46;95346.69;;;9.26;70.30
73332;BME280;61560;33.718;73.040;2023-02-01T00:46:13;95336.53;;;9.23;71.05
73332;BME280;61560;33.718;73.040;2023-02-01T00:48:40;95339.66;;;9.21;70.30
73332;BME280;61560;33.718;73.040;2023-02-01T00:51:28;95342.00;;;9.23;70.51
73332;BME280;61560;33.718;73.040;2023-02-01T00:53:55;95334.97;;;9.22;70.01
73332;BME280;61560;33.718;73.040;2023-02-01T00:56:22;95343.56;;;9.17;70.76
73332;BME280;61560;33.718;73.040;2023-02-01T00:58:49;95347.88;;;9.11;70.79
73332;BME280;61560;33.718;73.040;2023-02-01T01:01:19;95357.63;;;9.08;71.20
73332;BME280;61560;33.718;73.040;2023-02-01T01:03:56;95357.59;;;9.01;71.69
73332;BME280;61560;33.718;73.040;2023-02-01T01:06:28;95356.41;;;8.95;71.78
73332;BME280;61560;33.718;73.040;2023-02-01T01:08:57;95354.09;;;8.93;71.85
73332;BME280;61560;33.718;73.040;2023-02-01T01:11:27;95344.75;;;8.94;72.05
73332;BME280;61560;33.718;73.040;2023-02-01T01:13:56;95341.22;;;8.94;71.53
73332;BME280;61560;33.718;73.040;2023-02-01T01:16:24;95338.50;;;8.94;72.23
73332;BME280;61560;33.718;73.040;2023-02-01T01:18:52;95333.41;;;8.96;71.60
73332;BME280;61560;33.718;73.040;2023-02-01T01:21:28;95346.28;;;8.95;71.27
73332;BME280;61560;33.718;73.040;2023-02-01T01:23:58;95333.03;;;8.90;71.53
73332;BME280;61560;33.718;73.040;2023-02-01T01:26:27;95345.13;;;8.86;71.78
73332;BME280;61560;33.718;73.040;2023-02-01T01:28:55;95348.63;;;8.86;72.25
73332;BME280;61560;33.718;73.040;2023-02-01T01:31:23;95344.72;;;8.84;72.55
73332;BME280;61560;33.718;73.040;2023-02-01T01:33:53;95347.84;;;8.82;71.90
73332;BME280;61560;33.718;73.040;2023-02-01T01:36:20;95352.53;;;8.82;72.72
73332;BME280;61560;33.718;73.040;2023-02-01T01:38:47;95359.53;;;8.83;72.06
73332;BME280;61560;33.718;73.040;2023-02-01T01:41:17;95363.44;;;8.78;71.85
73332;BME280;61560;33.718;73.040;2023-02-01T01:43:58;95370.81;;;8.74;72.46
73332;BME280;61560;33.718;73.040;2023-02-01T01:51:40;95381.75;;;8.64;72.23
73332;BME280;61560;33.718;73.040;2023-02-01T01:54:15;95392.66;;;8.64;72.51
73332;BME280;61560;33.718;73.040;2023-02-01T01:56:48;95395.41;;;8.64;72.56
73332;BME280;61560;33.718;73.040;2023-02-01T01:59:17;95396.56;;;8.63;72.85
73332;BME280;61560;33.718;73.040;2023-02-01T02:01:43;95407.88;;;8.61;73.24
73332;BME280;61560;33.718;73.040;2023-02-01T02:04:11;95417.22;;;8.60;72.73
73332;BME280;61560;33.718;73.040;2023-02-01T02:09:19;95428.91;;;8.57;73.04
73332;BME280;61560;33.718;73.040;2023-02-01T02:11:45;95425.78;;;8.59;72.83
73332;BME280;61560;33.718;73.040;2023-02-01T02:14:13;95430.09;;;8.63;73.09
73332;BME280;61560;33.718;73.040;2023-02-01T02:25:21;95416.09;;;8.75;71.13
73332;BME280;61560;33.718;73.040;2023-02-01T02:44:28;95411.28;;;10.62;65.07
73332;BME280;61560;33.718;73.040;2023-02-01T02:47:56;95411.88;;;11.02;63.54
73332;BME280;61560;33.718;73.040;2023-02-01T02:50:51;95412.63;;;11.02;62.22
73332;BME280;61560;33.718;73.040;2023-02-01T02:53:57;95415.41;;;11.57;61.76
73332;BME280;61560;33.718;73.040;2023-02-01T02:56:47;95413.81;;;12.75;58.54
73332;BME280;61560;33.718;73.040;2023-02-01T02:59:35;95421.41;;;13.51;55.82
73332;BME280;61560;33.718;73.040;2023-02-01T03:02:21;95412.38;;;13.77;55.05
73332;BME280;61560;33.718;73.040;2023-02-01T03:05:06;95408.41;;;14.01;54.26
73332;BME280;61560;33.718;73.040;2023-02-01T03:11:47;95421.63;;;13.86;54.60
73332;BME280;61560;33.718;73.040;2023-02-01T03:19:16;95440.72;;;13.21;55.72
73332;BME280;61560;33.718;73.040;2023-02-01T03:21:50;95435.44;;;13.06;55.38
73332;BME280;61560;33.718;73.040;2023-02-01T03:24:23;95438.91;;;13.10;55.17
73332;BME280;61560;33.718;73.040;2023-02-01T03:32:15;95461.59;;;13.18;54.15
73332;BME280;61560;33.718;73.040;2023-02-01T03:34:44;95452.09;;;13.23;53.90
73332;BME280;61560;33.718;73.040;2023-02-01T03:37:13;95451.72;;;13.21;52.93
73332;BME280;61560;33.718;73.040;2023-02-01T03:39:58;95462.06;;;13.13;53.98
73332;BME280;61560;33.718;73.040;2023-02-01T03:42:33;95461.38;;;13.02;53.72
73332;BME280;61560;33.718;73.040;2023-02-01T03:47:49;95463.34;;;13.01;54.89
73332;BME280;61560;33.718;73.040;2023-02-01T03:50:20;95475.09;;;13.05;54.06
73332;BME280;61560;33.718;73.040;2023-02-01T03:55:26;95492.41;;;13.02;54.30
73332;BME280;61560;33.718;73.040;2023-02-01T03:58:01;95497.91;;;13.02;54.64
73332;BME280;61560;33.718;73.040;2023-02-01T04:00:31;95505.88;;;12.93;55.81
73332;BME280;61560;33.718;73.040;2023-02-01T04:02:58;95500.41;;;12.90;56.04
73332;BME280;61560;33.718;73.040;2023-02-01T04:05:26;95509.34;;;12.97;55.83
73332;BME280;61560;33.718;73.040;2023-02-01T04:08:00;95516.78;;;13.00;55.79
73332;BME280;61560;33.718;73.040;2023-02-01T04:10:27;95509.78;;;12.96;55.24
73332;BME280;61560;33.718;73.040;2023-02-01T04:12:53;95523.09;;;12.97;55.91
73332;BME280;61560;33.718;73.040;2023-02-01T04:15:20;95524.22;;;13.03;56.13
73332;BME280;61560;33.718;73.040;2023-02-01T04:17:46;95531.69;;;13.06;55.40
73332;BME280;61560;33.718;73.040;2023-02-01T04:20:13;95543.78;;;13.12;56.43
73332;BME280;61560;33.718;73.040;2023-02-01T04:22:39;95533.19;;;13.11;56.44
73332;BME280;61560;33.718;73.040;2023-02-01T04:25:06;95543.84;;;13.09;56.68
73332;BME280;61560;33.718;73.040;2023-02-01T04:27:34;95538.69;;;13.11;56.11
73332;BME280;61560;33.718;73.040;2023-02-01T04:30:03;95551.59;;;13.18;55.81
73332;BME280;61560;33.718;73.040;2023-02-01T04:32:29;95544.41;;;13.27;56.43
73332;BME280;61560;33.718;73.040;2023-02-01T04:34:56;95550.44;;;13.45;56.57
73332;BME280;61560;33.718;73.040;2023-02-01T04:37:22;95560.38;;;13.66;56.45
73332;BME280;61560;33.718;73.040;2023-02-01T04:39:48;95562.88;;;13.83;55.61
73332;BME280;61560;33.718;73.040;2023-02-01T04:42:15;95551.72;;;13.94;52.92
73332;BME280;61560;33.718;73.040;2023-02-01T04:44:42;95551.94;;;14.07;52.91
73332;BME280;61560;33.718;73.040;2023-02-01T04:47:08;95552.06;;;14.00;50.64
73332;BME280;61560;33.718;73.040;2023-02-01T04:49:36;95562.16;;;14.06;51.46
73332;BME280;61560;33.718;73.040;2023-02-01T04:52:03;95564.66;;;14.24;52.07
73332;BME280;61560;33.718;73.040;2023-02-01T04:54:29;95572.19;;;14.46;51.99
73332;BME280;61560;33.718;73.040;2023-02-01T04:56:56;95578.09;;;14.68;49.77
73332;BME280;61560;33.718;73.040;2023-02-01T04:59:22;95583.94;;;14.73;49.67
73332;BME280;61560;33.718;73.040;2023-02-01T05:01:52;95587.81;;;14.76;49.26
73332;BME280;61560;33.718;73.040;2023-02-01T05:04:19;95586.25;;;14.75;49.29
73332;BME280;61560;33.718;73.040;2023-02-01T05:06:46;95600.13;;;14.71;49.55
73332;BME280;61560;33.718;73.040;2023-02-01T05:09:12;95596.19;;;14.92;49.50
73332;BME280;61560;33.718;73.040;2023-02-01T05:11:39;95599.19;;;15.44;48.46
73332;BME280;61560;33.718;73.040;2023-02-01T05:14:24;95598.44;;;15.99;46.17
73332;BME280;61560;33.718;73.040;2023-02-01T05:16:51;95589.41;;;16.30;45.49
73332;BME280;61560;33.718;73.040;2023-02-01T05:19:17;95583.72;;;16.70;45.00
73332;BME280;61560;33.718;73.040;2023-02-01T05:21:44;95588.25;;;17.08;44.34
73332;BME280;61560;33.718;73.040;2023-02-01T05:24:13;95591.25;;;17.43;43.72
73332;BME280;61560;33.718;73.040;2023-02-01T05:26:46;95586.31;;;17.79;43.11
73332;BME280;61560;33.718;73.040;2023-02-01T05:29:14;95583.56;;;17.91;42.38
73332;BME280;61560;33.718;73.040;2023-02-01T05:31:41;95582.66;;;17.82;41.99
73332;BME280;61560;33.718;73.040;2023-02-01T05:34:07;95570.88;;;17.53;42.36
73332;BME280;61560;33.718;73.040;2023-02-01T05:36:37;95573.91;;;17.42;42.01
73332;BME280;61560;33.718;73.040;2023-02-01T05:39:03;95555.09;;;17.21;42.50
73332;BME280;61560;33.718;73.040;2023-02-01T05:41:33;95556.34;;;17.04;42.11
73332;BME280;61560;33.718;73.040;2023-02-01T05:44:00;95544.41;;;17.07;41.62
73332;BME280;61560;33.718;73.040;2023-02-01T05:46:27;95545.44;;;17.13;41.20
73332;BME280;61560;33.718;73.040;2023-02-01T05:48:53;95554.41;;;17.17;41.31
73332;BME280;61560;33.718;73.040;2023-02-01T05:51:20;95547.31;;;17.16;41.88
73332;BME280;61560;33.718;73.040;2023-02-01T05:53:46;95553.50;;;17.07;42.70
73332;BME280;61560;33.718;73.040;2023-02-01T05:56:13;95539.59;;;16.95;43.16
73332;BME280;61560;33.718;73.040;2023-02-01T05:58:42;95544.97;;;16.86;42.91
73332;BME280;61560;33.718;73.040;2023-02-01T06:01:08;95541.28;;;16.76;43.77
73332;BME280;61560;33.718;73.040;2023-02-01T06:03:36;95536.47;;;16.64;44.05
73332;BME280;61560;33.718;73.040;2023-02-01T06:06:03;95525.47;;;16.61;44.46
73332;BME280;61560;33.718;73.040;2023-02-01T06:08:30;95528.06;;;16.68;43.96
73332;BME280;61560;33.718;73.040;2023-02-01T06:11:01;95527.72;;;16.66;44.28
73332;BME280;61560;33.718;73.040;2023-02-01T06:13:28;95523.25;;;16.56;44.86
73332;BME280;61560;33.718;73.040;2023-02-01T06:15:55;95521.91;;;16.44;44.37
73332;BME280;61560;33.718;73.040;2023-02-01T06:18:25;95525.31;;;16.35;45.19
73332;BME280;61560;33.718;73.040;2023-02-01T06:20:57;95533.94;;;16.37;44.91
73332;BME280;61560;33.718;73.040;2023-02-01T06:23:26;95515.78;;;16.36;45.43
73332;BME280;61560;33.718;73.040;2023-02-01T06:25:58;95522.09;;;16.37;45.45
73332;BME280;61560;33.718;73.040;2023-02-01T06:28:25;95521.31;;;16.36;44.45
73332;BME280;61560;33.718;73.040;2023-02-01T06:30:55;95514.59;;;16.37;44.84
73332;BME280;61560;33.718;73.040;2023-02-01T06:33:22;95507.00;;;16.42;44.28
73332;BME280;61560;33.718;73.040;2023-02-01T06:35:48;95493.22;;;16.38;43.85
73332;BME280;61560;33.718;73.040;2023-02-01T06:38:17;95485.72;;;16.38;44.25
73332;BME280;61560;33.718;73.040;2023-02-01T06:40:44;95485.38;;;16.36;44.45
73332;BME280;61560;33.718;73.040;2023-02-01T06:43:11;95483.66;;;16.42;44.22
73332;BME280;61560;33.718;73.040;2023-02-01T06:45:37;95474.31;;;16.53;43.66
73332;BME280;61560;33.718;73.040;2023-02-01T06:48:04;95473.19;;;16.66;43.02
73332;BME280;61560;33.718;73.040;2023-02-01T06:50:31;95475.84;;;16.70;42.71
73332;BME280;61560;33.718;73.040;2023-02-01T06:52:58;95475.34;;;16.75;42.34
73332;BME280;61560;33.718;73.040;2023-02-01T06:55:24;95479.34;;;16.86;41.15
73332;BME280;61560;33.718;73.040;2023-02-01T06:57:53;95474.28;;;16.97;41.72
73332;BME280;61560;33.718;73.040;2023-02-01T07:00:21;95462.06;;;17.11;41.29
73332;BME280;61560;33.718;73.040;2023-02-01T07:02:48;95465.72;;;17.20;41.40
73332;BME280;61560;33.718;73.040;2023-02-01T07:05:15;95454.16;;;17.38;41.06
73332;BME280;61560;33.718;73.040;2023-02-01T07:07:43;95448.63;;;17.51;40.27
73332;BME280;61560;33.718;73.040;2023-02-01T07:10:09;95443.00;;;17.54;39.67
73332;BME280;61560;33.718;73.040;2023-02-01T07:12:37;95441.75;;;17.55;41.19
73332;BME280;61560;33.718;73.040;2023-02-01T07:15:04;95434.88;;;17.47;41.47
73332;BME280;61560;33.718;73.040;2023-02-01T07:17:31;95438.53;;;17.44;41.56
73332;BME280;61560;33.718;73.040;2023-02-01T07:19:58;95437.19;;;17.49;41.73
73332;BME280;61560;33.718;73.040;2023-02-01T07:22:27;95437.88;;;17.65;41.97
73332;BME280;61560;33.718;73.040;2023-02-01T07:24:54;95433.78;;;17.70;40.49
73332;BME280;61560;33.718;73.040;2023-02-01T07:27:22;95424.28;;;17.71;40.50
73332;BME280;61560;33.718;73.040;2023-02-01T07:29:50;95416.63;;;17.75;40.38
73332;BME280;61560;33.718;73.040;2023-02-01T07:32:17;95415.38;;;17.76;40.01
73332;BME280;61560;33.718;73.040;2023-02-01T07:34:44;95408.06;;;17.69;40.58
73332;BME280;61560;33.718;73.040;2023-02-01T07:37:11;95410.50;;;17.67;40.41
73332;BME280;61560;33.718;73.040;2023-02-01T07:39:38;95412.88;;;17.69;40.35
73332;BME280;61560;33.718;73.040;2023-02-01T07:42:05;95403.09;;;17.77;40.74
73332;BME280;61560;33.718;73.040;2023-02-01T07:44:32;95402.09;;;17.83;40.16
73332;BME280;61560;33.718;73.040;2023-02-01T07:46:59;95402.63;;;17.91;40.29
73332;BME280;61560;33.718;73.040;2023-02-01T07:49:25;95388.44;;;18.02;39.97
73332;BME280;61560;33.718;73.040;2023-02-01T07:51:52;95386.53;;;18.11;39.98
73332;BME280;61560;33.718;73.040;2023-02-01T07:54:18;95376.88;;;18.16;39.28
73332;BME280;61560;33.718;73.040;2023-02-01T07:56:44;95378.41;;;18.17;39.67
73332;BME280;61560;33.718;73.040;2023-02-01T07:59:11;95365.50;;;18.23;40.13
73332;BME280;61560;33.718;73.040;2023-02-01T08:01:38;95358.53;;;18.31;39.04
73332;BME280;61560;33.718;73.040;2023-02-01T09:03:48;95260.50;;;18.46;33.13
73332;BME280;61560;33.718;73.040;2023-02-01T09:06:18;95251.34;;;18.58;32.79
73332;BME280;61560;33.718;73.040;2023-02-01T09:08:44;95241.84;;;18.68;33.36
73332;BME280;61560;33.718;73.040;2023-02-01T09:11:14;95238.00;;;18.75;32.67
73332;BME280;61560;33.718;73.040;2023-02-01T09:13:41;95236.69;;;18.89;32.86
73332;BME280;61560;33.718;73.040;2023-02-01T09:16:09;95241.03;;;18.99;32.47
73332;BME280;61560;33.718;73.040;2023-02-01T09:18:35;95230.25;;;19.01;32.27
73332;BME280;61560;33.718;73.040;2023-02-01T09:21:06;95236.59;;;19.01;31.71
73332;BME280;61560;33.718;73.040;2023-02-01T09:23:35;95223.78;;;19.04;32.05
73332;BME280;61560;33.718;73.040;2023-02-01T09:26:03;95220.44;;;19.09;31.48
73332;BME280;61560;33.718;73.040;2023-02-01T09:28:31;95215.94;;;19.11;31.48
73332;BME280;61560;33.718;73.040;2023-02-01T09:30:58;95212.25;;;19.14;31.12
73332;BME280;61560;33.718;73.040;2023-02-01T09:33:28;95208.72;;;19.14;30.44
73332;BME280;61560;33.718;73.040;2023-02-01T09:35:58;95211.63;;;19.10;30.00
73332;BME280;61560;33.718;73.040;2023-02-01T09:38:29;95209.44;;;19.05;29.46
73332;BME280;61560;33.718;73.040;2023-02-01T09:40:58;95205.88;;;19.05;30.24
73332;BME280;61560;33.718;73.040;2023-02-01T09:43:41;95200.53;;;19.10;30.30
73332;BME280;61560;33.718;73.040;2023-02-01T09:46:29;95205.78;;;19.17;30.59
73332;BME280;61560;33.718;73.040;2023-02-01T09:48:59;95207.66;;;19.20;30.48
73332;BME280;61560;33.718;73.040;2023-02-01T09:51:48;95210.59;;;19.26;30.44
73332;BME280;61560;33.718;73.040;2023-02-01T09:54:27;95214.00;;;19.21;30.15
73332;BME280;61560;33.718;73.040;2023-02-01T09:57:06;95211.47;;;19.14;30.46
73332;BME280;61560;33.718;73.040;2023-02-01T09:59:41;95216.09;;;19.08;31.30
73332;BME280;61560;33.718;73.040;2023-02-01T10:02:18;95200.63;;;18.98;31.70
73332;BME280;61560;33.718;73.040;2023-02-01T10:04:46;95192.91;;;18.93;32.31
73332;BME280;61560;33.718;73.040;2023-02-01T10:10:02;95200.44;;;18.83;31.40
73332;BME280;61560;33.718;73.040;2023-02-01T10:15:26;95201.78;;;18.78;31.15
73332;BME280;61560;33.718;73.040;2023-02-01T10:26:19;95215.41;;;18.86;31.39
73332;BME280;61560;33.718;73.040;2023-02-01T10:28:58;95210.00;;;18.82;31.05
73332;BME280;61560;33.718;73.040;2023-02-01T10:31:30;95215.03;;;18.74;31.68
73332;BME280;61560;33.718;73.040;2023-02-01T10:34:00;95217.00;;;18.65;31.86
73332;BME280;61560;33.718;73.040;2023-02-01T10:36:41;95220.50;;;18.56;32.12
73332;BME280;61560;33.718;73.040;2023-02-01T10:39:12;95217.34;;;18.45;33.13
73332;BME280;61560;33.718;73.040;2023-02-01T10:41:40;95216.03;;;18.37;33.73
73332;BME280;61560;33.718;73.040;2023-02-01T10:44:17;95211.88;;;18.33;33.30
73332;BME280;61560;33.718;73.040;2023-02-01T10:46:46;95214.31;;;18.31;33.60
73332;BME280;61560;33.718;73.040;2023-02-01T10:52:10;95212.59;;;18.24;34.36
73332;BME280;61560;33.718;73.040;2023-02-01T10:54:41;95199.75;;;18.18;34.36
73332;BME280;61560;33.718;73.040;2023-02-01T10:57:11;95200.63;;;18.15;34.67
73332;BME280;61560;33.718;73.040;2023-02-01T10:59:46;95188.72;;;18.05;34.48
73332;BME280;61560;33.718;73.040;2023-02-01T11:02:33;95192.78;;;17.91;33.12
73332;BME280;61560;33.718;73.040;2023-02-01T11:05:09;95185.19;;;17.83;33.13
73332;BME280;61560;33.718;73.040;2023-02-01T11:07:40;95191.56;;;17.71;33.38
73332;BME280;61560;33.718;73.040;2023-02-01T11:10:40;95178.06;;;17.60;33.35
73332;BME280;61560;33.718;73.040;2023-02-01T11:13:15;95170.91;;;17.50;33.25
73332;BME280;61560;33.718;73.040;2023-02-01T11:15:46;95166.03;;;17.42;33.17
73332;BME280;61560;33.718;73.040;2023-02-01T11:18:26;95168.16;;;17.38;33.52
73332;BME280;61560;33.718;73.040;2023-02-01T11:20:59;95169.63;;;17.30;33.61
73332;BME280;61560;33.718;73.040;2023-02-01T11:23:27;95182.03;;;17.25;33.88
73332;BME280;61560;33.718;73.040;2023-02-01T11:25:57;95180.91;;;17.23;33.97
73332;BME280;61560;33.718;73.040;2023-02-01T11:28:32;95185.69;;;17.22;34.26
73332;BME280;61560;33.718;73.040;2023-02-01T11:31:03;95186.78;;;17.25;34.08
73332;BME280;61560;33.718;73.040;2023-02-01T11:33:33;95177.28;;;17.26;34.89
73332;BME280;61560;33.718;73.040;2023-02-01T11:36:07;95178.81;;;17.27;34.86
73332;BME280;61560;33.718;73.040;2023-02-01T11:38:34;95180.91;;;17.23;35.55
73332;BME280;61560;33.718;73.040;2023-02-01T11:41:23;95184.91;;;17.22;35.34
73332;BME280;61560;33.718;73.040;2023-02-01T11:43:56;95185.81;;;17.18;35.29
73332;BME280;61560;33.718;73.040;2023-02-01T11:46:32;95181.72;;;17.10;35.26
73332;BME280;61560;33.718;73.040;2023-02-01T11:49:21;95173.88;;;17.09;35.41
73332;BME280;61560;33.718;73.040;2023-02-01T12:06:18;95185.97;;;16.65;36.62
73332;BME280;61560;33.718;73.040;2023-02-01T12:09:30;95194.94;;;16.56;36.79
73332;BME280;61560;33.718;73.040;2023-02-01T12:12:23;95202.25;;;16.50;36.95
73332;BME280;61560;33.718;73.040;2023-02-01T12:26:26;95201.34;;;16.12;38.04
73332;BME280;61560;33.718;73.040;2023-02-01T12:29:34;95216.81;;;16.09;38.13
73332;BME280;61560;33.718;73.040;2023-02-01T12:32:25;95219.34;;;16.04;38.75
73332;BME280;61560;33.718;73.040;2023-02-01T12:43:03;95227.16;;;15.64;41.67
73332;BME280;61560;33.718;73.040;2023-02-01T12:45:39;95231.31;;;15.56;42.56
73332;BME280;61560;33.718;73.040;2023-02-01T12:48:37;95234.28;;;15.49;43.75
73332;BME280;61560;33.718;73.040;2023-02-01T12:51:18;95234.97;;;15.37;44.54
73332;BME280;61560;33.718;73.040;2023-02-01T12:56:35;95237.31;;;15.22;46.02
73332;BME280;61560;33.718;73.040;2023-02-01T12:59:11;95238.34;;;15.12;46.96
73332;BME280;61560;33.718;73.040;2023-02-01T14:03:44;95277.69;;;14.06;44.79
73332;BME280;61560;33.718;73.040;2023-02-01T14:06:36;95276.34;;;14.14;44.78
73332;BME280;61560;33.718;73.040;2023-02-01T14:11:47;95277.75;;;14.22;43.94
73332;BME280;61560;33.718;73.040;2023-02-01T14:19:26;95282.22;;;14.35;43.68
73332;BME280;61560;33.718;73.040;2023-02-01T14:21:54;95280.59;;;14.38;43.59
73332;BME280;61560;33.718;73.040;2023-02-01T14:24:33;95282.88;;;14.43;42.82
73332;BME280;61560;33.718;73.040;2023-02-01T14:29:43;95291.41;;;14.48;42.30
73332;BME280;61560;33.718;73.040;2023-02-01T14:55:49;95296.06;;;14.51;42.56
73332;BME280;61560;33.718;73.040;2023-02-01T15:01:29;95293.47;;;14.44;43.54
73332;BME280;61560;33.718;73.040;2023-02-01T15:07:34;95291.41;;;14.29;44.67
73332;BME280;61560;33.718;73.040;2023-02-01T15:10:02;95289.91;;;14.24;44.96
73332;BME280;61560;33.718;73.040;2023-02-01T15:12:30;95305.75;;;14.20;45.48
73332;BME280;61560;33.718;73.040;2023-02-01T15:15:12;95301.53;;;14.12;46.19
73332;BME280;61560;33.718;73.040;2023-02-01T15:17:40;95300.50;;;14.06;47.08
73332;BME280;61560;33.718;73.040;2023-02-01T15:20:20;95294.00;;;13.96;47.49
73332;BME280;61560;33.718;73.040;2023-02-01T15:22:54;95304.78;;;13.87;48.13
73332;BME280;61560;33.718;73.040;2023-02-01T15:25:26;95304.06;;;13.83;49.23
73332;BME280;61560;33.718;73.040;2023-02-01T15:27:54;95305.72;;;13.81;49.02
73332;BME280;61560;33.718;73.040;2023-02-01T15:30:26;95319.50;;;13.77;49.99
73332;BME280;61560;33.718;73.040;2023-02-01T15:35:40;95309.84;;;13.69;51.11
73332;BME280;61560;33.718;73.040;2023-02-01T15:41:08;95321.16;;;13.52;52.76
73332;BME280;61560;33.718;73.040;2023-02-01T15:43:40;95333.41;;;13.47;53.14
73332;BME280;61560;33.718;73.040;2023-02-01T15:46:31;95328.41;;;13.42;53.44
73332;BME280;61560;33.718;73.040;2023-02-01T15:48:56;95335.97;;;13.35;54.10
73332;BME280;61560;33.718;73.040;2023-02-01T15:51:25;95338.44;;;13.29;54.56
73332;BME280;61560;33.718;73.040;2023-02-01T15:53:56;95326.06;;;13.18;54.90
73332;BME280;61560;33.718;73.040;2023-02-01T15:56:27;95335.44;;;13.20;55.39
73332;BME280;61560;33.718;73.040;2023-02-01T15:58:57;95331.94;;;13.16;55.48
73332;BME280;61560;33.718;73.040;2023-02-01T16:01:24;95344.63;;;13.10;56.14
73332;BME280;61560;33.718;73.040;2023-02-01T16:04:03;95339.59;;;13.05;56.58
73332;BME280;61560;33.718;73.040;2023-02-01T16:06:32;95341.97;;;13.03;56.41
73332;BME280;61560;33.718;73.040;2023-02-01T16:09:10;95343.97;;;12.99;56.57
73332;BME280;61560;33.718;73.040;2023-02-01T16:11:58;95341.63;;;12.97;57.02
73332;BME280;61560;33.718;73.040;2023-02-01T16:14:26;95339.31;;;12.96;57.09
73332;BME280;61560;33.718;73.040;2023-02-01T16:16:57;95340.50;;;12.95;57.06
73332;BME280;61560;33.718;73.040;2023-02-01T16:19:30;95336.63;;;12.92;57.18
73332;BME280;61560;33.718;73.040;2023-02-01T16:22:06;95346.88;;;12.88;57.57
73332;BME280;61560;33.718;73.040;2023-02-01T16:24:33;95354.78;;;12.83;57.29
73332;BME280;61560;33.718;73.040;2023-02-01T16:27:00;95352.53;;;12.78;57.38
73332;BME280;61560;33.718;73.040;2023-02-01T16:29:26;95350.28;;;12.69;57.06
73332;BME280;61560;33.718;73.040;2023-02-01T16:31:53;95351.13;;;12.66;57.08
73332;BME280;61560;33.718;73.040;2023-02-01T16:34:20;95348.03;;;12.61;56.65
73332;BME280;61560;33.718;73.040;2023-02-01T16:36:50;95353.13;;;12.62;56.85
73332;BME280;61560;33.718;73.040;2023-02-01T16:39:23;95351.16;;;12.63;57.33
73332;BME280;61560;33.718;73.040;2023-02-01T16:41:50;95348.41;;;12.63;57.50
73332;BME280;61560;33.718;73.040;2023-02-01T16:44:17;95348.03;;;12.61;57.83
73332;BME280;61560;33.718;73.040;2023-02-01T16:46:45;95354.38;;;12.58;57.94
73332;BME280;61560;33.718;73.040;2023-02-01T16:49:33;95350.84;;;12.57;58.27
73332;BME280;61560;33.718;73.040;2023-02-01T16:52:02;95356.38;;;12.54;58.37
73332;BME280;61560;33.718;73.040;2023-02-01T16:54:28;95355.66;;;12.46;59.10
73332;BME280;61560;33.718;73.040;2023-02-01T16:56:55;95354.50;;;12.47;59.10
73332;BME280;61560;33.718;73.040;2023-02-01T16:59:22;95357.25;;;12.47;59.68
73332;BME280;61560;33.718;73.040;2023-02-01T17:01:48;95359.25;;;12.43;60.18
73332;BME280;61560;33.718;73.040;2023-02-01T17:04:15;95349.06;;;12.44;60.27
73332;BME280;61560;33.718;73.040;2023-02-01T17:06:42;95346.69;;;12.46;60.08
73332;BME280;61560;33.718;73.040;2023-02-01T17:09:14;95334.94;;;12.42;60.36
73332;BME280;61560;33.718;73.040;2023-02-01T17:11:40;95338.88;;;12.41;60.64
73332;BME280;61560;33.718;73.040;2023-02-01T17:14:18;95355.03;;;12.35;60.86
73332;BME280;61560;33.718;73.040;2023-02-01T17:16:47;95350.34;;;12.32;60.75
73332;BME280;61560;33.718;73.040;2023-02-01T17:19:16;95341.00;;;12.26;60.31
73332;BME280;61560;33.718;73.040;2023-02-01T17:21:47;95346.50;;;12.26;61.18
73332;BME280;61560;33.718;73.040;2023-02-01T17:24:17;95345.34;;;12.23;61.07
73332;BME280;61560;33.718;73.040;2023-02-01T17:26:44;95345.41;;;12.20;60.80
73332;BME280;61560;33.718;73.040;2023-02-01T17:29:12;95359.53;;;12.18;60.74
73332;BME280;61560;33.718;73.040;2023-02-01T17:31:44;95351.31;;;12.18;61.05
73332;BME280;61560;33.718;73.040;2023-02-01T17:34:12;95352.91;;;12.16;60.90
73332;BME280;61560;33.718;73.040;2023-02-01T17:36:46;95348.97;;;12.17;60.94
73332;BME280;61560;33.718;73.040;2023-02-01T17:39:13;95345.44;;;12.16;61.11
73332;BME280;61560;33.718;73.040;2023-02-01T17:42:01;95349.75;;;12.17;61.08
73332;BME280;61560;33.718;73.040;2023-02-01T17:44:28;95351.34;;;12.15;61.53
73332;BME280;61560;33.718;73.040;2023-02-01T17:46:55;95347.00;;;12.17;61.26
73332;BME280;61560;33.718;73.040;2023-02-01T17:49:24;95344.25;;;12.17;61.07